Time;durP1;ratioP1;P1;durP2;ratioP2;P2;SDS_P1;SDS_P2;PMS_P1;PMS_P2;Temp;Humidity;BMP_temperature;BMP_pressure;BME280_temperature;BME280_humidity;BME280_pressure;Samples;Min_cycle;Max_cycle;Signal;HPM_P1;HPM_P2
2021/04/19 00:00:53;;;;;;;33.17;19.35;;;;;;;29.56;56.71;100982.84;5017709;28;65753;-27
2021/04/19 00:03:23;;;;;;;27.60;20.40;;;;;;;29.63;59.15;100990.97;4991640;28;70377;-26
2021/04/19 00:05:53;;;;;;;25.48;20.08;;;;;;;29.65;59.23;100998.88;5029610;28;65516;-26
2021/04/19 00:08:23;;;;;;;32.90;21.60;;;;;;;29.65;60.01;101001.59;5022315;28;70198;-26
2021/04/19 00:10:53;;;;;;;31.48;21.42;;;;;;;29.67;60.20;101003.03;5015036;28;65994;-26
2021/04/19 00:13:22;;;;;;;28.05;19.98;;;;;;;29.75;60.28;101008.19;5005000;28;68999;-26
2021/04/19 00:15:52;;;;;;;27.42;19.73;;;;;;;29.82;60.18;101014.44;5007705;28;66019;-26
2021/04/19 00:18:24;;;;;;;;;;;;;;;29.80;61.66;101010.28;5019760;28;69790;-26
2021/04/19 00:20:53;;;;;;;35.05;22.35;;;;;;;29.93;60.37;101014.84;5022923;28;66162;-25
2021/04/19 00:23:23;;;;;;;41.75;23.25;;;;;;;29.98;60.96;101028.59;5014056;28;69751;-26
2021/04/19 00:25:52;;;;;;;36.58;22.23;;;;;;;30.05;60.47;101023.97;5016912;28;66335;-27
2021/04/19 00:28:23;;;;;;;37.80;21.88;;;;;;;30.10;60.44;101024.19;5017007;28;69185;-26
2021/04/19 00:30:52;;;;;;;33.05;21.45;;;;;;;30.19;60.51;101031.00;5024465;28;66103;-27
2021/04/19 00:33:22;;;;;;;30.67;21.30;;;;;;;30.20;60.36;101021.88;5016878;28;69308;-27
2021/04/19 00:35:52;;;;;;;34.03;20.95;;;;;;;30.29;60.34;101030.63;5016182;28;66048;-28
2021/04/19 00:38:24;;;;;;;26.48;20.92;;;;;;;30.31;60.87;101033.09;5019307;28;69118;-28
2021/04/19 00:40:55;;;;;;;27.85;21.67;;;;;;;30.29;60.13;101046.84;5030114;28;66449;-27
2021/04/19 00:43:25;;;;;;;27.88;21.33;;;;;;;30.31;60.18;101043.91;5022003;28;69929;-27
2021/04/19 00:46:05;;;;;;;27.00;20.55;;;;;;;30.31;59.56;101038.50;5010409;28;65195;-27
2021/04/19 00:48:36;;;;;;;24.05;21.60;;;;;;;30.31;59.49;101043.91;5022240;28;69986;-26
2021/04/19 00:51:07;;;;;;;33.28;22.30;;;;;;;30.36;59.49;101054.94;5022217;28;66457;-27
2021/04/19 00:53:38;;;;;;;25.75;21.20;;;;;;;30.33;59.42;101049.97;5021375;28;69849;-26
2021/04/19 00:56:08;;;;;;;22.80;20.15;;;;;;;30.41;59.45;101060.56;5021230;28;66243;-27
2021/04/19 00:58:40;;;;;;;38.45;20.38;;;;;;;30.40;60.11;101056.19;5028538;28;69955;-27
2021/04/19 01:01:12;;;;;;;29.17;20.00;;;;;;;30.35;59.31;101045.16;5025063;28;66859;-28
2021/04/19 01:03:43;;;;;;;26.77;18.95;;;;;;;30.42;59.90;101059.50;5017822;28;70311;-27
2021/04/19 01:06:14;;;;;;;30.77;19.38;;;;;;;30.47;59.93;101071.34;5015412;28;66613;-28
2021/04/19 01:08:44;;;;;;;24.00;18.10;;;;;;;30.53;60.15;101069.66;5021463;28;69223;-27
2021/04/19 01:11:13;;;;;;;25.67;17.55;;;;;;;30.56;59.77;101073.81;5026195;28;66288;-27
2021/04/19 01:13:43;;;;;;;25.48;18.33;;;;;;;30.54;60.07;101076.75;5029537;28;69103;-27
2021/04/19 01:16:13;;;;;;;25.55;17.27;;;;;;;30.60;59.25;101081.31;5025988;28;66479;-26
2021/04/19 01:18:44;;;;;;;18.13;16.23;;;;;;;30.63;59.49;101091.72;5015132;28;70128;-26
2021/04/19 01:21:14;;;;;;;53.15;17.27;;;;;;;30.66;59.52;101077.75;5017641;28;66067;-28
2021/04/19 01:23:44;;;;;;;47.95;17.48;;;;;;;30.69;59.37;101080.03;5017202;28;70698;-27
2021/04/19 01:26:14;;;;;;;33.25;15.98;;;;;;;30.71;59.85;101082.53;5026929;28;66592;-27
2021/04/19 01:28:57;;;;;;;32.75;15.27;;;;;;;30.73;59.09;101086.69;5023010;28;71425;-27
2021/04/19 01:31:31;;;;;;;25.63;14.98;;;;;;;30.77;59.64;101080.84;5008652;28;66127;-27
2021/04/19 01:34:07;;;;;;;28.60;14.77;;;;;;;30.78;59.48;101071.66;5020863;28;70047;-27
2021/04/19 01:36:38;;;;;;;23.63;13.77;;;;;;;30.79;59.25;101073.34;5016678;28;66090;-26
2021/04/19 01:39:16;;;;;;;26.50;13.77;;;;;;;30.83;58.61;101077.28;5023905;28;71228;-27
2021/04/19 01:41:49;;;;;;;20.33;13.18;;;;;;;30.87;58.65;101076.66;5008006;28;66130;-27
2021/04/19 01:44:18;;;;;;;14.48;12.98;;;;;;;30.86;58.92;101082.28;5017664;28;69661;-27
2021/04/19 01:46:50;;;;;;;;;;;;;;;30.81;59.54;101082.91;5017956;28;66032;-27
2021/04/19 01:49:23;;;;;;;19.90;12.98;;;;;;;30.89;58.58;101084.56;5024585;28;69121;-26
2021/04/19 01:51:53;;;;;;;15.18;12.00;;;;;;;30.97;58.25;101088.91;5029658;28;66032;-26
2021/04/19 01:54:23;;;;;;;19.70;11.77;;;;;;;30.97;58.65;101087.00;5018699;28;69937;-26
2021/04/19 01:56:55;;;;;;;13.52;12.27;;;;;;;30.96;58.77;101088.06;5017065;28;66102;-27
2021/04/19 01:59:28;;;;;;;13.23;11.90;;;;;;;30.99;58.41;101082.22;5017661;28;69164;-29
2021/04/19 02:02:06;;;;;;;16.55;12.38;;;;;;;31.00;58.93;101075.75;5021480;28;65427;-27
2021/04/19 02:04:38;;;;;;;12.73;11.52;;;;;;;31.12;58.51;101079.44;5043562;28;69702;-28
2021/04/19 02:07:20;;;;;;;36.92;14.05;;;;;;;31.12;58.60;101090.28;5017447;28;65152;-28
2021/04/19 02:10:37;;;;;;;42.60;14.23;;;;;;;31.15;58.41;101068.16;5020182;28;69001;-28
2021/04/19 02:13:43;;;;;;;20.83;13.63;;;;;;;31.10;59.25;101078.81;4995556;28;66670;-27
2021/04/19 02:16:39;;;;;;;17.58;13.02;;;;;;;31.22;58.16;101083.53;5016164;28;70396;-26
2021/04/19 02:19:55;;;;;;;19.98;12.90;;;;;;;31.25;58.03;101066.84;5031701;28;66112;-27
2021/04/19 02:22:37;;;;;;;14.32;12.50;;;;;;;31.23;58.36;101052.69;4971484;28;70021;-28
2021/04/19 02:25:16;;;;;;;19.50;11.98;;;;;;;31.35;57.75;101069.91;5021562;28;65544;-28
2021/04/19 02:27:54;;;;;;;23.10;12.75;;;;;;;31.36;57.98;101058.03;5020832;28;69408;-29
2021/04/19 02:30:35;;;;;;;15.30;13.93;;;;;;;31.40;57.98;101048.44;5012274;28;65978;-27
2021/04/19 02:33:13;;;;;;;22.38;13.85;;;;;;;31.49;58.00;101068.81;5036284;28;70054;-28
2021/04/19 02:35:45;;;;;;;14.90;13.02;;;;;;;31.52;58.41;101078.38;5017765;28;65146;-28
2021/04/19 02:38:22;;;;;;;20.10;13.65;;;;;;;31.52;58.25;101071.06;5015949;28;69536;-28
2021/04/19 02:41:00;;;;;;;50.45;15.48;;;;;;;31.50;57.70;101058.78;5024874;28;65099;-27
2021/04/19 02:43:33;;;;;;;44.50;15.35;;;;;;;31.52;57.99;101046.66;4999021;28;69620;-27
2021/04/19 02:46:07;;;;;;;59.28;16.05;;;;;;;31.53;57.81;101037.47;5000165;28;67040;-27
2021/04/19 02:48:39;;;;;;;30.83;14.43;;;;;;;31.57;57.65;101044.13;5017918;28;70034;-28
2021/04/19 02:51:25;;;;;;;26.52;13.43;;;;;;;31.61;57.70;101050.75;5028412;28;66329;-27
2021/04/19 02:53:55;;;;;;;30.98;13.52;;;;;;;31.72;57.43;101051.09;5020331;28;69992;-26
2021/04/19 02:56:29;;;;;;;26.90;13.50;;;;;;;31.68;58.07;101036.31;5020211;28;64875;-26
2021/04/19 02:59:02;;;;;;;27.27;13.50;;;;;;;31.73;57.60;101031.03;5025679;28;70089;-26
2021/04/19 03:01:41;;;;;;;20.80;13.73;;;;;;;31.70;57.56;101028.78;4999764;28;65448;-27
2021/04/19 03:04:15;;;;;;;16.63;12.80;;;;;;;31.71;57.55;101023.16;5004646;28;70503;-27
2021/04/19 03:06:58;;;;;;;18.05;12.43;;;;;;;31.79;57.28;101030.19;5015896;28;66029;-27
2021/04/19 03:09:28;;;;;;;13.02;11.70;;;;;;;31.81;57.49;101019.91;5018671;28;70731;-26
2021/04/19 03:12:04;;;;;;;12.90;11.07;;;;;;;31.82;56.90;101016.16;5015137;28;65807;-26
2021/04/19 03:14:48;;;;;;;15.57;11.93;;;;;;;31.93;57.09;101023.59;4998090;28;69670;-26
2021/04/19 03:17:24;;;;;;;21.23;13.25;;;;;;;31.86;57.04;101003.81;4993803;28;65212;-27
2021/04/19 03:20:25;;;;;;;23.23;12.05;;;;;;;31.88;56.85;101012.56;5043445;28;70417;-26
2021/04/19 03:23:15;;;;;;;18.90;13.18;;;;;;;32.05;56.81;101015.53;5017391;27;66597;-27
2021/04/19 03:25:56;;;;;;;17.42;12.25;;;;;;;32.13;56.66;101015.25;5018993;28;70272;-26
2021/04/19 03:28:30;;;;;;;12.93;11.65;;;;;;;32.17;56.71;101011.00;5020742;28;66537;-27
2021/04/19 03:31:17;;;;;;;13.68;11.82;;;;;;;32.13;56.59;101000.84;5048195;28;69988;-26
2021/04/19 03:33:49;;;;;;;12.45;11.45;;;;;;;32.27;56.97;101005.88;5013556;28;66077;-27
2021/04/19 03:36:21;;;;;;;;;;;;;;;32.23;56.90;101006.56;5017711;28;69878;-27
2021/04/19 03:38:54;;;;;;;13.40;10.60;;;;;;;32.32;56.76;101001.66;5016847;28;67094;-27
2021/04/19 03:41:30;;;;;;;15.10;11.55;;;;;;;32.29;56.84;100983.97;5019741;28;70068;-28
2021/04/19 03:44:02;;;;;;;11.30;10.18;;;;;;;32.27;56.78;100980.63;5035173;28;64944;-28
2021/04/19 03:46:35;;;;;;;12.57;11.40;;;;;;;32.39;56.63;100992.38;5019839;28;68970;-28
2021/04/19 03:49:27;;;;;;;13.13;11.93;;;;;;;32.28;56.65;100985.81;5022031;28;65418;-27
2021/04/19 03:52:10;;;;;;;18.52;11.38;;;;;;;32.31;57.12;100983.72;5018519;28;70301;-28
2021/04/19 03:54:45;;;;;;;13.77;11.20;;;;;;;32.38;56.51;100988.00;5034515;28;65299;-27
2021/04/19 03:57:21;;;;;;;26.27;12.05;;;;;;;32.40;56.65;100983.19;5029612;28;69940;-28
2021/04/19 03:59:56;;;;;;;16.40;11.77;;;;;;;32.39;56.50;100970.66;5030174;28;66544;-27
2021/04/19 04:02:50;;;;;;;13.50;11.70;;;;;;;32.44;56.66;100961.84;5021482;28;69866;-28
2021/04/19 04:05:37;;;;;;;23.40;11.82;;;;;;;32.53;56.64;100970.53;5047484;28;66162;-26
2021/04/19 04:08:29;;;;;;;14.18;11.68;;;;;;;32.55;56.75;100962.97;5037379;28;70317;-28
2021/04/19 04:11:00;;;;;;;21.17;12.38;;;;;;;32.57;56.44;100966.28;5028939;28;66687;-28
2021/04/19 04:13:30;;;;;;;;;;;;;;;32.49;56.71;100953.88;5023686;28;70161;-28
2021/04/19 04:16:01;;;;;;;18.45;11.65;;;;;;;32.55;56.13;100947.50;5021471;28;65234;-28
2021/04/19 04:18:51;;;;;;;16.33;11.82;;;;;;;32.55;56.67;100931.22;5033076;28;69219;-28
2021/04/19 04:21:21;;;;;;;13.65;12.45;;;;;;;32.54;56.42;100935.00;5030389;28;66185;-28
2021/04/19 04:23:57;;;;;;;16.35;12.43;;;;;;;32.59;55.38;100929.69;5011151;28;69694;-27
2021/04/19 04:26:32;;;;;;;15.45;12.23;;;;;;;32.56;55.61;100921.19;5011632;28;65773;-28
2021/04/19 04:29:03;;;;;;;16.83;12.57;;;;;;;32.60;54.89;100922.38;5033040;28;70000;-28
2021/04/19 04:31:41;;;;;;;18.92;12.63;;;;;;;32.58;55.07;100913.63;5027862;28;66969;-27
2021/04/19 04:34:14;;;;;;;13.23;11.85;;;;;;;32.61;55.28;100921.31;5029595;28;69802;-28
2021/04/19 04:36:47;;;;;;;13.43;12.23;;;;;;;32.61;54.88;100907.75;5024889;28;66375;-28
2021/04/19 04:39:19;;;;;;;13.85;12.50;;;;;;;32.60;54.87;100897.94;5021293;28;70376;-28
2021/04/19 04:41:49;;;;;;;13.63;12.30;;;;;;;32.61;55.06;100896.88;5023338;28;66193;-28
2021/04/19 04:44:24;;;;;;;13.20;11.95;;;;;;;32.54;54.98;100883.41;5027382;28;69865;-28
2021/04/19 04:47:21;;;;;;;19.75;12.05;;;;;;;32.57;55.24;100880.22;5001828;28;65963;-28
2021/04/19 04:50:00;;;;;;;16.77;11.00;;;;;;;32.55;55.13;100865.22;5025436;28;68919;-28
2021/04/19 04:52:40;;;;;;;13.48;11.60;;;;;;;32.60;54.98;100862.63;5030562;28;66772;-29
2021/04/19 04:55:14;;;;;;;12.10;10.18;;;;;;;32.65;54.93;100870.88;5017704;28;69964;-28
2021/04/19 04:57:46;;;;;;;13.40;10.85;;;;;;;32.67;54.85;100874.22;5033014;28;66426;-28
2021/04/19 05:00:18;;;;;;;13.77;11.13;;;;;;;32.69;55.19;100847.66;5029801;28;69397;-28
2021/04/19 05:02:50;;;;;;;12.73;11.45;;;;;;;32.70;55.23;100849.28;5020275;28;66214;-28
2021/04/19 05:05:20;;;;;;;11.18;10.20;;;;;;;32.70;55.10;100841.16;5028591;28;69099;-28
2021/04/19 05:07:52;;;;;;;11.50;10.45;;;;;;;32.71;55.14;100832.78;5019144;28;65141;-28
2021/04/19 05:10:21;;;;;;;11.37;10.37;;;;;;;32.70;55.21;100833.00;5030718;28;69918;-28
2021/04/19 05:12:51;;;;;;;11.85;9.65;;;;;;;32.67;55.42;100820.72;5029862;28;66220;-28
2021/04/19 05:15:23;;;;;;;10.43;9.63;;;;;;;32.71;55.52;100823.81;5023999;28;68614;-27
2021/04/19 05:17:53;;;;;;;11.70;9.55;;;;;;;32.71;55.16;100826.53;5019643;28;66462;-27
2021/04/19 05:20:26;;;;;;;10.20;9.20;;;;;;;32.72;55.27;100806.44;5018498;28;70421;-28
2021/04/19 05:22:56;;;;;;;10.45;9.52;;;;;;;32.69;55.34;100805.00;5018163;28;65835;-28
2021/04/19 05:25:26;;;;;;;10.60;9.50;;;;;;;32.72;55.20;100803.72;5017567;28;69061;-28
2021/04/19 05:27:58;;;;;;;10.48;9.57;;;;;;;32.73;55.59;100802.66;5011455;28;65384;-28
2021/04/19 05:30:31;;;;;;;10.90;9.55;;;;;;;32.70;55.23;100782.22;5016807;28;69187;-28
2021/04/19 05:33:04;;;;;;;11.23;9.38;;;;;;;32.75;55.13;100778.81;5017254;28;66786;-28
2021/04/19 05:35:35;;;;;;;10.65;9.75;;;;;;;32.70;55.45;100765.91;5015354;28;69922;-28
2021/04/19 05:38:09;;;;;;;10.45;9.43;;;;;;;32.78;55.21;100772.06;5017029;28;66619;-28
2021/04/19 05:40:42;;;;;;;9.32;8.68;;;;;;;32.77;55.37;100770.44;5016721;28;69640;-27
2021/04/19 05:43:13;;;;;;;9.30;8.70;;;;;;;32.77;54.92;100765.81;5004405;28;66146;-27
2021/04/19 05:45:44;;;;;;;9.63;9.00;;;;;;;32.77;55.35;100752.25;5015121;28;70027;-28
2021/04/19 05:48:14;;;;;;;9.57;8.98;;;;;;;32.80;55.23;100749.03;5017349;28;65322;-27
2021/04/19 05:50:49;;;;;;;9.73;9.02;;;;;;;32.84;54.93;100739.34;5018096;28;70234;-28
2021/04/19 05:53:18;;;;;;;9.23;8.43;;;;;;;32.84;54.63;100733.91;5017920;28;65930;-28
2021/04/19 05:55:52;;;;;;;9.13;8.52;;;;;;;32.84;54.69;100723.03;5016505;28;69259;-28
2021/04/19 05:58:56;;;;;;;9.48;8.88;;;;;;;32.81;54.80;100715.38;5012223;28;66408;-29
2021/04/19 06:01:27;;;;;;;9.43;8.73;;;;;;;32.92;55.04;100702.84;5005072;28;69980;-28
2021/04/19 06:04:11;;;;;;;9.25;8.48;;;;;;;32.84;54.98;100693.16;5015353;28;66542;-28
2021/04/19 06:07:20;;;;;;;9.25;8.63;;;;;;;32.94;55.01;100701.53;5016402;28;70273;-28
2021/04/19 06:10:19;;;;;;;8.93;8.38;;;;;;;33.00;54.75;100699.78;4997390;28;65323;-28
2021/04/19 06:13:09;;;;;;;8.77;8.18;;;;;;;33.00;54.80;100682.66;5007580;28;69933;-28
2021/04/19 06:15:42;;;;;;;8.75;8.25;;;;;;;33.03;54.82;100688.44;5017393;28;66811;-28
2021/04/19 06:18:13;;;;;;;9.53;8.73;;;;;;;33.02;54.92;100675.94;5016722;28;69848;-28
2021/04/19 06:20:49;;;;;;;13.20;8.45;;;;;;;33.06;54.67;100670.84;5017537;28;65686;-28
2021/04/19 06:23:18;;;;;;;18.30;9.13;;;;;;;33.08;54.78;100666.00;5018060;28;70109;-28
2021/04/19 06:25:49;;;;;;;9.35;8.48;;;;;;;33.07;54.94;100661.59;5018568;28;65675;-28
2021/04/19 06:28:23;;;;;;;9.30;8.57;;;;;;;33.06;54.83;100654.53;5005892;28;71555;-29
2021/04/19 06:31:17;;;;;;;10.93;8.27;;;;;;;33.08;54.75;100653.22;5038689;28;66569;-28
2021/04/19 06:34:03;;;;;;;11.45;8.38;;;;;;;33.04;54.91;100635.75;5029038;28;69890;-28
2021/04/19 06:36:37;;;;;;;9.30;8.60;;;;;;;33.10;54.75;100633.97;5020431;28;65043;-28
2021/04/19 06:39:10;;;;;;;14.27;8.13;;;;;;;33.16;54.73;100624.84;5012852;28;70260;-28
2021/04/19 06:41:41;;;;;;;8.90;8.00;;;;;;;33.17;54.89;100618.34;5019322;28;65198;-28
2021/04/19 06:44:13;;;;;;;17.58;8.55;;;;;;;33.19;55.06;100613.50;5005895;28;69229;-28
2021/04/19 06:46:46;;;;;;;14.27;8.82;;;;;;;33.22;54.77;100599.41;5017515;28;66201;-28
2021/04/19 06:49:22;;;;;;;8.75;7.95;;;;;;;33.26;54.62;100602.47;5032352;28;69388;-28
2021/04/19 06:51:54;;;;;;;11.77;8.10;;;;;;;33.25;54.69;100593.50;5024028;28;65379;-28
2021/04/19 06:54:26;;;;;;;12.82;9.27;;;;;;;33.30;54.66;100590.03;5033672;28;69061;-28
2021/04/19 06:56:58;;;;;;;10.40;8.55;;;;;;;33.32;54.68;100588.75;5033965;28;66075;-28
2021/04/19 06:59:30;;;;;;;9.63;8.80;;;;;;;33.33;54.47;100574.06;5035439;28;69252;-28
2021/04/19 07:02:01;;;;;;;8.43;7.72;;;;;;;33.37;54.54;100569.78;5023307;28;65047;-28
2021/04/19 07:04:32;;;;;;;10.20;8.80;;;;;;;33.42;54.46;100576.38;5032826;28;67741;-28
2021/04/19 07:07:03;;;;;;;12.82;8.32;;;;;;;33.42;54.21;100566.31;5027173;28;65657;-29
2021/04/19 07:09:40;;;;;;;9.07;8.35;;;;;;;33.49;54.77;100567.00;5032898;28;69767;-28
2021/04/19 07:12:17;;;;;;;11.10;8.10;;;;;;;33.50;54.28;100562.38;5006774;28;65959;-28
2021/04/19 07:14:53;;;;;;;9.38;7.50;;;;;;;33.52;54.08;100561.09;5026448;28;69747;-28
2021/04/19 07:17:25;;;;;;;9.27;7.72;;;;;;;33.52;54.40;100560.25;5019564;28;66049;-28
2021/04/19 07:19:58;;;;;;;8.75;8.02;;;;;;;33.55;54.20;100559.78;5016005;28;70250;-28
2021/04/19 07:22:29;;;;;;;8.55;7.75;;;;;;;33.54;54.27;100552.69;5001619;28;64202;-28
2021/04/19 07:24:59;;;;;;;9.20;7.93;;;;;;;33.55;54.31;100551.63;5031645;28;69874;-28
2021/04/19 07:27:34;;;;;;;10.75;7.22;;;;;;;33.53;54.06;100548.31;5019689;28;66680;-28
2021/04/19 07:30:04;;;;;;;8.03;7.13;;;;;;;33.52;54.06;100560.25;5012349;28;69837;-29
2021/04/19 07:32:39;;;;;;;8.77;7.90;;;;;;;33.58;54.09;100576.44;5032905;28;64948;-28
2021/04/19 07:35:09;;;;;;;8.30;7.57;;;;;;;33.59;54.32;100571.81;5027384;28;70006;-28
2021/04/19 07:37:57;;;;;;;10.32;7.75;;;;;;;33.57;53.84;100573.94;5017152;28;66367;-28
2021/04/19 07:40:42;;;;;;;8.25;7.45;;;;;;;33.54;54.32;100563.56;5018151;28;70464;-29
2021/04/19 07:43:18;;;;;;;8.05;7.43;;;;;;;33.64;54.13;100577.34;5016109;28;65294;-29
2021/04/19 07:46:21;;;;;;;10.88;7.78;;;;;;;33.57;54.29;100574.78;5016963;28;70062;-28
2021/04/19 07:48:52;;;;;;;10.95;7.97;;;;;;;33.66;53.88;100575.22;5012947;28;66363;-28
2021/04/19 07:51:34;;;;;;;8.68;7.90;;;;;;;33.56;54.55;100572.31;5016521;28;69879;-28
2021/04/19 07:54:20;;;;;;;8.88;8.00;;;;;;;33.66;54.18;100580.66;5016410;28;65231;-29
2021/04/19 07:56:52;;;;;;;9.05;8.30;;;;;;;33.72;53.88;100579.66;5017338;28;69204;-28
2021/04/19 07:59:37;;;;;;;9.07;8.35;;;;;;;33.65;53.76;100589.88;5015142;28;66345;-29
2021/04/19 08:02:19;;;;;;;8.15;7.55;;;;;;;33.68;53.95;100588.53;5015451;28;69982;-28
2021/04/19 08:04:53;;;;;;;19.75;8.93;;;;;;;33.73;54.36;100596.78;5017271;28;65606;-28
2021/04/19 08:07:26;;;;;;;13.63;7.60;;;;;;;33.74;54.16;100595.72;5014097;28;70151;-28
2021/04/19 08:09:59;;;;;;;21.52;8.68;;;;;;;33.78;53.94;100597.69;5015094;28;66565;-28
2021/04/19 08:12:32;;;;;;;13.18;8.70;;;;;;;33.74;53.96;100588.41;5015909;28;69745;-28
2021/04/19 08:15:04;;;;;;;15.98;8.60;;;;;;;33.83;53.91;100604.31;5009010;28;66047;-28
2021/04/19 08:17:34;;;;;;;;;;;;;;;33.74;53.85;100577.53;5022437;28;69698;-28
2021/04/19 08:20:16;;;;;;;14.27;9.13;;;;;;;33.91;53.76;100587.59;5028173;28;66468;-28
2021/04/19 08:22:46;;;;;;;14.88;8.75;;;;;;;33.94;53.51;100589.81;5017997;28;70102;-28
2021/04/19 08:25:22;;;;;;;12.20;8.63;;;;;;;33.95;53.70;100586.00;5016013;28;65493;-28
2021/04/19 08:28:05;;;;;;;9.55;8.30;;;;;;;33.96;53.79;100603.97;5030194;28;70175;-28
2021/04/19 08:30:36;;;;;;;15.07;7.88;;;;;;;34.00;53.94;100600.50;5027419;28;64915;-28
2021/04/19 08:33:07;;;;;;;10.27;8.18;;;;;;;34.03;53.69;100608.19;5031288;28;70252;-28
2021/04/19 08:35:37;;;;;;;10.60;8.02;;;;;;;34.07;54.02;100594.91;5019300;28;64998;-28
2021/04/19 08:38:08;;;;;;;10.98;8.32;;;;;;;34.09;53.88;100611.81;5010558;28;69320;-28
2021/04/19 08:40:40;;;;;;;10.63;8.38;;;;;;;34.09;53.83;100625.44;5025904;28;65847;-28
2021/04/19 08:43:23;;;;;;;10.40;8.38;;;;;;;34.03;53.82;100626.41;5033751;28;69129;-29
2021/04/19 08:45:54;;;;;;;8.65;7.97;;;;;;;34.13;53.92;100636.66;5024823;28;66235;-29
2021/04/19 08:48:24;;;;;;;10.57;7.93;;;;;;;34.12;53.82;100635.81;5028512;28;69573;-29
2021/04/19 08:50:54;;;;;;;9.60;8.70;;;;;;;34.11;53.95;100623.31;5027631;28;65442;-29
2021/04/19 08:53:23;;;;;;;8.57;7.75;;;;;;;34.13;54.06;100610.28;5023691;28;69885;-29
2021/04/19 08:55:53;;;;;;;11.80;8.05;;;;;;;34.11;53.87;100619.75;5015198;28;65307;-29
2021/04/19 08:58:23;;;;;;;11.10;8.38;;;;;;;34.09;54.05;100614.56;5035915;28;69727;-29
2021/04/19 09:00:54;;;;;;;8.95;8.20;;;;;;;34.13;53.92;100628.47;5024329;28;65917;-29
2021/04/19 09:03:24;;;;;;;;;;;;;;;33.99;54.42;100630.69;5036310;28;70146;-29
2021/04/19 09:05:54;;;;;;;8.90;8.13;;;;;;;34.12;54.10;100638.53;5022153;28;66156;-29
2021/04/19 09:08:23;;;;;;;8.95;8.05;;;;;;;34.12;54.33;100646.72;5034990;28;69996;-29
2021/04/19 09:11:00;;;;;;;10.02;9.25;;;;;;;34.09;54.14;100652.66;5035997;28;66143;-29
2021/04/19 09:13:42;;;;;;;9.13;8.45;;;;;;;34.08;54.27;100667.34;5033023;28;69991;-29
2021/04/19 09:16:18;;;;;;;9.20;8.57;;;;;;;34.06;54.31;100641.44;5022279;28;65953;-29
2021/04/19 09:18:54;;;;;;;9.23;8.30;;;;;;;34.05;54.05;100646.06;5032290;28;69237;-29
2021/04/19 09:21:37;;;;;;;8.63;7.88;;;;;;;34.02;54.31;100646.53;5021308;28;64955;-29
2021/04/19 09:24:17;;;;;;;8.98;8.18;;;;;;;34.03;54.30;100648.19;5019924;28;69079;-29
2021/04/19 09:26:55;;;;;;;8.30;7.53;;;;;;;34.06;53.74;100663.22;5023762;28;65995;-29
2021/04/19 09:29:24;;;;;;;15.93;7.38;;;;;;;34.06;53.74;100658.59;5019374;28;69403;-28
2021/04/19 09:32:00;;;;;;;8.85;8.00;;;;;;;34.02;53.84;100657.44;5019580;28;66498;-27
2021/04/19 09:34:46;;;;;;;10.88;7.50;;;;;;;33.99;53.93;100657.88;5031262;28;70349;-29
2021/04/19 09:37:20;;;;;;;8.52;7.82;;;;;;;34.00;53.44;100660.38;5027313;28;65076;-29
2021/04/19 09:40:01;;;;;;;7.78;7.18;;;;;;;33.97;53.87;100650.00;5032579;28;68993;-29
2021/04/19 09:42:56;;;;;;;6.95;6.45;;;;;;;33.87;53.86;100649.00;5027815;28;66010;-29
2021/04/19 09:45:44;;;;;;;7.82;7.00;;;;;;;33.84;53.90;100655.75;5029174;28;70587;-29
2021/04/19 09:48:30;;;;;;;8.48;7.03;;;;;;;33.87;54.01;100659.88;5028915;28;67072;-28
2021/04/19 09:51:12;;;;;;;7.47;6.97;;;;;;;33.88;53.85;100688.72;5028912;27;70406;-28
2021/04/19 09:53:46;;;;;;;13.02;8.00;;;;;;;33.84;53.76;100709.34;5030225;28;65929;-29
2021/04/19 09:56:24;;;;;;;7.20;6.70;;;;;;;33.84;53.62;100731.94;5031770;28;70098;-29
2021/04/19 09:58:54;;;;;;;11.35;6.93;;;;;;;33.76;54.07;100738.59;5018659;28;65637;-29
2021/04/19 10:01:25;;;;;;;8.10;6.90;;;;;;;33.78;53.88;100743.78;5011079;28;69366;-29
2021/04/19 10:03:57;;;;;;;6.75;6.35;;;;;;;33.70;53.83;100725.97;5012015;28;66151;-29
2021/04/19 10:06:53;;;;;;;6.97;6.38;;;;;;;33.75;53.99;100719.81;5013056;28;70324;-29
2021/04/19 10:09:29;;;;;;;8.90;6.53;;;;;;;33.70;54.04;100704.19;5034167;27;65541;-28
2021/04/19 10:12:03;;;;;;;6.90;6.35;;;;;;;33.75;54.10;100707.03;5018066;28;70618;-28
2021/04/19 10:14:40;;;;;;;7.05;6.55;;;;;;;33.69;53.84;100713.44;5019403;28;66186;-29
2021/04/19 10:17:18;;;;;;;6.97;6.57;;;;;;;33.70;54.21;100720.53;5019981;28;71086;-28
2021/04/19 10:19:47;;;;;;;6.97;6.40;;;;;;;33.70;54.01;100715.09;5016663;28;66126;-29
2021/04/19 10:22:21;;;;;;;7.05;6.35;;;;;;;33.66;54.18;100719.38;5009378;28;69890;-28
2021/04/19 10:24:53;;;;;;;6.40;5.93;;;;;;;33.62;54.48;100707.31;5016007;28;65494;-29
2021/04/19 10:27:29;;;;;;;7.07;6.47;;;;;;;33.59;54.31;100691.47;5015963;28;69149;-28
2021/04/19 10:30:16;;;;;;;6.60;6.00;;;;;;;33.57;54.60;100688.16;5013244;28;66114;-28
2021/04/19 10:32:48;;;;;;;6.93;6.22;;;;;;;33.61;54.71;100678.47;5014618;28;70063;-30
2021/04/19 10:35:31;;;;;;;9.02;5.68;;;;;;;33.50;54.51;100677.41;5016011;28;65921;-30
2021/04/19 10:38:14;;;;;;;7.03;6.53;;;;;;;33.56;54.72;100697.41;5009615;28;68944;-28
2021/04/19 10:40:43;;;;;;;6.63;6.22;;;;;;;33.47;54.59;100698.84;5013141;28;67047;-29
2021/04/19 10:43:18;;;;;;;6.70;6.30;;;;;;;33.47;54.94;100704.28;5012916;28;70076;-29
2021/04/19 10:45:48;;;;;;;7.15;6.35;;;;;;;33.48;54.77;100711.34;5014535;28;64945;-29
2021/04/19 10:48:27;;;;;;;6.78;6.15;;;;;;;33.46;54.69;100722.50;5012598;28;70687;-29
2021/04/19 10:51:14;;;;;;;6.70;6.25;;;;;;;33.49;54.66;100734.75;5004793;28;65943;-28
2021/04/19 10:53:51;;;;;;;6.90;6.43;;;;;;;33.43;54.68;100731.13;5012984;28;70413;-28
2021/04/19 10:56:24;;;;;;;6.80;6.20;;;;;;;33.45;54.55;100739.03;5028922;28;64777;-35
2021/04/19 10:59:14;;;;;;;9.95;6.30;;;;;;;33.37;55.12;100748.41;5013392;28;70119;-30
2021/04/19 11:01:45;;;;;;;6.13;5.72;;;;;;;33.36;54.57;100763.06;5009459;28;65977;-28
2021/04/19 11:04:21;;;;;;;;;;;;;;;33.27;54.95;100764.50;5015455;28;69908;-29
2021/04/19 11:06:51;;;;;;;12.45;7.05;;;;;;;33.37;54.78;100773.69;5017449;28;65980;-27
2021/04/19 11:09:26;;;;;;;8.82;6.80;;;;;;;33.30;54.55;100774.91;5013260;28;70044;-27
2021/04/19 11:11:56;;;;;;;13.25;7.68;;;;;;;33.27;54.14;100770.78;5012578;28;65265;-29
2021/04/19 11:14:35;;;;;;;15.23;8.63;;;;;;;33.24;54.08;100768.53;5014130;28;70062;-28
2021/04/19 11:17:09;;;;;;;10.98;8.15;;;;;;;33.27;54.12;100776.22;4999658;28;65926;-28
2021/04/19 11:19:44;;;;;;;11.23;10.07;;;;;;;33.22;54.20;100778.00;5015799;28;69263;-28
2021/04/19 11:22:27;;;;;;;18.25;10.55;;;;;;;33.06;54.07;100768.66;5015883;28;66440;-28
2021/04/19 11:25:32;;;;;;;10.23;9.38;;;;;;;33.03;53.57;100777.31;5013097;28;70387;-29
2021/04/19 11:28:29;;;;;;;10.48;9.68;;;;;;;32.88;53.72;100786.72;5015120;28;66017;-28
2021/04/19 11:31:15;;;;;;;11.00;10.10;;;;;;;32.88;53.61;100797.59;5014357;28;70189;-31
2021/04/19 11:33:47;;;;;;;12.90;11.50;;;;;;;32.86;53.89;100807.88;5009593;28;65140;-29
2021/04/19 11:36:39;;;;;;;14.55;10.15;;;;;;;32.77;54.07;100806.56;5012654;28;70006;-28
2021/04/19 11:39:20;;;;;;;16.52;9.48;;;;;;;32.73;54.10;100808.09;5013268;28;66145;-28
2021/04/19 11:41:51;;;;;;;12.80;9.15;;;;;;;32.75;54.20;100800.53;5007701;28;69163;-29
2021/04/19 11:44:47;;;;;;;10.90;9.82;;;;;;;32.50;55.25;100803.44;5009223;28;65620;-28
2021/04/19 11:47:18;;;;;;;12.95;9.73;;;;;;;32.35;55.46;100790.28;5012259;28;70262;-28
2021/04/19 11:49:56;;;;;;;10.32;9.32;;;;;;;32.39;55.99;100807.75;5023183;28;65175;-27
2021/04/19 11:52:27;;;;;;;14.15;9.10;;;;;;;32.28;56.32;100814.00;5009976;28;70140;-27
2021/04/19 11:54:56;;;;;;;19.67;9.80;;;;;;;32.36;55.86;100819.09;5014730;28;66042;-28
2021/04/19 11:57:26;;;;;;;17.38;9.45;;;;;;;32.43;56.53;100825.25;5014571;28;69971;-28